sensor_id;sensor_type;location;lat;lon;timestamp;P1;durP1;ratioP1;P2;durP2;ratioP2
69629;SDS011;56857;52.212;5.496;2023-02-28T00:01:52;6.33;;;3.20;;
69629;SDS011;56857;52.212;5.496;2023-02-28T00:04:17;7.43;;;3.97;;
69629;SDS011;56857;52.212;5.496;2023-02-28T00:06:44;9.15;;;4.00;;
69629;SDS011;56857;52.212;5.496;2023-02-28T00:09:17;9.05;;;3.67;;
69629;SDS011;56857;52.212;5.496;2023-02-28T00:11:43;11.18;;;4.07;;
69629;SDS011;56857;52.212;5.496;2023-02-28T00:14:09;8.25;;;3.38;;
69629;SDS011;56857;52.212;5.496;2023-02-28T00:16:34;9.48;;;3.60;;
69629;SDS011;56857;52.212;5.496;2023-02-28T00:19:00;8.15;;;3.80;;
69629;SDS011;56857;52.212;5.496;2023-02-28T00:21:26;9.50;;;3.90;;
69629;SDS011;56857;52.212;5.496;2023-02-28T00:23:51;8.05;;;4.28;;
69629;SDS011;56857;52.212;5.496;2023-02-28T00:26:17;7.87;;;3.80;;
69629;SDS011;56857;52.212;5.496;2023-02-28T00:28:42;8.90;;;4.15;;
69629;SDS011;56857;52.212;5.496;2023-02-28T00:31:15;10.10;;;4.50;;
69629;SDS011;56857;52.212;5.496;2023-02-28T00:33:41;7.47;;;3.33;;
69629;SDS011;56857;52.212;5.496;2023-02-28T00:36:07;8.23;;;3.90;;
69629;SDS011;56857;52.212;5.496;2023-02-28T00:38:36;8.73;;;3.40;;
69629;SDS011;56857;52.212;5.496;2023-02-28T00:41:08;6.75;;;3.50;;
69629;SDS011;56857;52.212;5.496;2023-02-28T00:43:34;10.40;;;4.00;;
69629;SDS011;56857;52.212;5.496;2023-02-28T00:46:03;7.47;;;3.92;;
69629;SDS011;56857;52.212;5.496;2023-02-28T00:48:31;9.13;;;4.70;;
69629;SDS011;56857;52.212;5.496;2023-02-28T00:50:58;8.18;;;3.80;;
69629;SDS011;56857;52.212;5.496;2023-02-28T00:53:23;10.82;;;5.00;;
69629;SDS011;56857;52.212;5.496;2023-02-28T00:55:49;8.05;;;4.15;;
69629;SDS011;56857;52.212;5.496;2023-02-28T00:58:17;8.63;;;3.85;;
69629;SDS011;56857;52.212;5.496;2023-02-28T01:00:45;8.73;;;3.80;;
69629;SDS011;56857;52.212;5.496;2023-02-28T01:03:10;7.47;;;3.85;;
69629;SDS011;56857;52.212;5.496;2023-02-28T01:05:36;9.05;;;4.22;;
69629;SDS011;56857;52.212;5.496;2023-02-28T01:08:01;10.75;;;4.15;;
69629;SDS011;56857;52.212;5.496;2023-02-28T01:10:26;8.00;;;3.63;;
69629;SDS011;56857;52.212;5.496;2023-02-28T01:12:53;10.48;;;4.07;;
69629;SDS011;56857;52.212;5.496;2023-02-28T01:15:18;11.53;;;3.87;;
69629;SDS011;56857;52.212;5.496;2023-02-28T01:20:11;11.07;;;3.80;;
69629;SDS011;56857;52.212;5.496;2023-02-28T01:22:39;9.68;;;4.40;;
69629;SDS011;56857;52.212;5.496;2023-02-28T01:25:04;8.07;;;3.92;;
69629;SDS011;56857;52.212;5.496;2023-02-28T01:27:30;9.80;;;4.45;;
69629;SDS011;56857;52.212;5.496;2023-02-28T01:29:55;8.15;;;3.85;;
69629;SDS011;56857;52.212;5.496;2023-02-28T01:32:21;7.38;;;3.45;;
69629;SDS011;56857;52.212;5.496;2023-02-28T01:34:46;9.05;;;3.50;;
69629;SDS011;56857;52.212;5.496;2023-02-28T01:37:11;8.33;;;3.50;;
69629;SDS011;56857;52.212;5.496;2023-02-28T01:39:37;7.57;;;3.92;;
69629;SDS011;56857;52.212;5.496;2023-02-28T01:42:02;8.57;;;3.97;;
69629;SDS011;56857;52.212;5.496;2023-02-28T01:47:38;8.45;;;3.78;;
69629;SDS011;56857;52.212;5.496;2023-02-28T01:50:08;11.07;;;3.72;;
69629;SDS011;56857;52.212;5.496;2023-02-28T01:52:37;8.18;;;3.25;;
69629;SDS011;56857;52.212;5.496;2023-02-28T01:55:04;8.27;;;3.92;;
69629;SDS011;56857;52.212;5.496;2023-02-28T01:57:33;9.50;;;4.03;;
69629;SDS011;56857;52.212;5.496;2023-02-28T02:00:03;10.68;;;3.83;;
69629;SDS011;56857;52.212;5.496;2023-02-28T02:02:33;8.88;;;4.10;;
69629;SDS011;56857;52.212;5.496;2023-02-28T02:05:00;7.97;;;3.95;;
69629;SDS011;56857;52.212;5.496;2023-02-28T02:07:29;8.88;;;3.83;;
69629;SDS011;56857;52.212;5.496;2023-02-28T02:10:03;10.68;;;3.97;;
69629;SDS011;56857;52.212;5.496;2023-02-28T02:12:52;9.38;;;3.90;;
69629;SDS011;56857;52.212;5.496;2023-02-28T02:24:34;11.25;;;4.25;;
69629;SDS011;56857;52.212;5.496;2023-02-28T02:41:04;9.52;;;4.32;;
69629;SDS011;56857;52.212;5.496;2023-02-28T02:46:25;11.70;;;4.70;;
69629;SDS011;56857;52.212;5.496;2023-02-28T02:48:55;8.00;;;3.72;;
69629;SDS011;56857;52.212;5.496;2023-02-28T02:51:23;9.30;;;4.32;;
69629;SDS011;56857;52.212;5.496;2023-02-28T02:53:54;11.88;;;4.07;;
69629;SDS011;56857;52.212;5.496;2023-02-28T02:56:26;9.95;;;4.35;;
69629;SDS011;56857;52.212;5.496;2023-02-28T02:58:55;7.75;;;3.88;;
69629;SDS011;56857;52.212;5.496;2023-02-28T03:01:24;11.90;;;4.03;;
69629;SDS011;56857;52.212;5.496;2023-02-28T03:03:51;9.52;;;3.83;;
69629;SDS011;56857;52.212;5.496;2023-02-28T03:06:17;16.02;;;6.10;;
69629;SDS011;56857;52.212;5.496;2023-02-28T03:08:42;11.73;;;4.22;;
69629;SDS011;56857;52.212;5.496;2023-02-28T03:11:11;9.53;;;3.73;;
69629;SDS011;56857;52.212;5.496;2023-02-28T03:21:56;10.00;;;4.00;;
69629;SDS011;56857;52.212;5.496;2023-02-28T03:24:27;11.07;;;4.72;;
69629;SDS011;56857;52.212;5.496;2023-02-28T03:27:11;9.15;;;3.63;;
69629;SDS011;56857;52.212;5.496;2023-02-28T03:29:46;8.43;;;3.85;;
69629;SDS011;56857;52.212;5.496;2023-02-28T03:32:31;7.15;;;3.38;;
69629;SDS011;56857;52.212;5.496;2023-02-28T03:35:02;8.52;;;3.83;;
69629;SDS011;56857;52.212;5.496;2023-02-28T03:37:38;8.75;;;3.92;;
69629;SDS011;56857;52.212;5.496;2023-02-28T03:40:08;8.80;;;4.32;;
69629;SDS011;56857;52.212;5.496;2023-02-28T03:42:41;10.07;;;4.30;;
69629;SDS011;56857;52.212;5.496;2023-02-28T03:45:11;12.02;;;3.80;;
69629;SDS011;56857;52.212;5.496;2023-02-28T03:53:12;10.68;;;3.47;;
69629;SDS011;56857;52.212;5.496;2023-02-28T03:55:58;8.40;;;4.00;;
69629;SDS011;56857;52.212;5.496;2023-02-28T03:59:18;9.85;;;3.88;;
69629;SDS011;56857;52.212;5.496;2023-02-28T04:01:27;7.60;;;3.90;;
69629;SDS011;56857;52.212;5.496;2023-02-28T04:04:00;7.30;;;3.83;;
69629;SDS011;56857;52.212;5.496;2023-02-28T04:06:25;8.35;;;4.25;;
69629;SDS011;56857;52.212;5.496;2023-02-28T04:08:51;7.68;;;3.90;;
69629;SDS011;56857;52.212;5.496;2023-02-28T04:13:51;12.13;;;4.22;;
69629;SDS011;56857;52.212;5.496;2023-02-28T04:16:18;13.23;;;5.07;;
69629;SDS011;56857;52.212;5.496;2023-02-28T04:18:44;6.95;;;3.55;;
69629;SDS011;56857;52.212;5.496;2023-02-28T04:21:10;9.10;;;4.25;;
69629;SDS011;56857;52.212;5.496;2023-02-28T04:23:36;9.18;;;4.57;;
69629;SDS011;56857;52.212;5.496;2023-02-28T04:26:03;13.73;;;4.25;;
69629;SDS011;56857;52.212;5.496;2023-02-28T04:28:28;7.95;;;3.85;;
69629;SDS011;56857;52.212;5.496;2023-02-28T04:30:55;9.18;;;3.97;;
69629;SDS011;56857;52.212;5.496;2023-02-28T04:33:21;7.00;;;3.70;;
69629;SDS011;56857;52.212;5.496;2023-02-28T04:35:47;7.97;;;3.10;;
69629;SDS011;56857;52.212;5.496;2023-02-28T04:38:12;6.68;;;3.78;;
69629;SDS011;56857;52.212;5.496;2023-02-28T04:40:37;7.15;;;3.75;;
69629;SDS011;56857;52.212;5.496;2023-02-28T04:43:03;6.35;;;3.47;;
69629;SDS011;56857;52.212;5.496;2023-02-28T04:45:28;8.38;;;2.78;;
69629;SDS011;56857;52.212;5.496;2023-02-28T04:47:54;8.25;;;2.97;;
69629;SDS011;56857;52.212;5.496;2023-02-28T04:50:19;9.55;;;3.63;;
69629;SDS011;56857;52.212;5.496;2023-02-28T04:52:44;7.45;;;3.15;;
69629;SDS011;56857;52.212;5.496;2023-02-28T04:55:10;6.55;;;3.03;;
69629;SDS011;56857;52.212;5.496;2023-02-28T04:57:35;7.55;;;3.03;;
69629;SDS011;56857;52.212;5.496;2023-02-28T05:00:00;5.63;;;3.05;;
69629;SDS011;56857;52.212;5.496;2023-02-28T05:02:25;8.52;;;5.07;;
69629;SDS011;56857;52.212;5.496;2023-02-28T05:04:51;7.55;;;3.40;;
69629;SDS011;56857;52.212;5.496;2023-02-28T05:07:16;6.57;;;3.30;;
69629;SDS011;56857;52.212;5.496;2023-02-28T05:09:41;8.20;;;3.20;;
69629;SDS011;56857;52.212;5.496;2023-02-28T05:12:08;5.37;;;3.13;;
69629;SDS011;56857;52.212;5.496;2023-02-28T05:14:34;6.72;;;3.28;;
69629;SDS011;56857;52.212;5.496;2023-02-28T05:16:59;6.88;;;3.13;;
69629;SDS011;56857;52.212;5.496;2023-02-28T05:21:51;7.07;;;2.97;;
69629;SDS011;56857;52.212;5.496;2023-02-28T05:24:18;7.82;;;3.40;;
69629;SDS011;56857;52.212;5.496;2023-02-28T05:26:44;7.00;;;3.20;;
69629;SDS011;56857;52.212;5.496;2023-02-28T05:31:35;6.88;;;3.22;;
69629;SDS011;56857;52.212;5.496;2023-02-28T05:34:01;6.30;;;3.20;;
69629;SDS011;56857;52.212;5.496;2023-02-28T05:36:27;5.72;;;3.15;;
69629;SDS011;56857;52.212;5.496;2023-02-28T05:38:52;6.50;;;3.42;;
69629;SDS011;56857;52.212;5.496;2023-02-28T05:43:44;8.27;;;3.25;;
69629;SDS011;56857;52.212;5.496;2023-02-28T05:46:10;6.00;;;2.95;;
69629;SDS011;56857;52.212;5.496;2023-02-28T05:48:38;7.15;;;3.65;;
69629;SDS011;56857;52.212;5.496;2023-02-28T05:51:05;7.78;;;3.58;;
69629;SDS011;56857;52.212;5.496;2023-02-28T05:53:32;6.10;;;3.22;;
69629;SDS011;56857;52.212;5.496;2023-02-28T05:55:57;10.70;;;3.47;;
69629;SDS011;56857;52.212;5.496;2023-02-28T06:00:48;8.55;;;3.83;;
69629;SDS011;56857;52.212;5.496;2023-02-28T06:05:39;6.83;;;3.23;;
69629;SDS011;56857;52.212;5.496;2023-02-28T06:10:30;7.03;;;4.75;;
69629;SDS011;56857;52.212;5.496;2023-02-28T06:15:20;8.80;;;3.80;;
69629;SDS011;56857;52.212;5.496;2023-02-28T06:17:46;7.22;;;3.15;;
69629;SDS011;56857;52.212;5.496;2023-02-28T06:22:37;7.63;;;4.38;;
69629;SDS011;56857;52.212;5.496;2023-02-28T06:27:28;7.18;;;3.85;;
69629;SDS011;56857;52.212;5.496;2023-02-28T06:29:55;7.93;;;4.18;;
69629;SDS011;56857;52.212;5.496;2023-02-28T06:32:21;8.98;;;3.95;;
69629;SDS011;56857;52.212;5.496;2023-02-28T06:34:46;7.63;;;4.40;;
69629;SDS011;56857;52.212;5.496;2023-02-28T06:37:12;7.28;;;3.88;;
69629;SDS011;56857;52.212;5.496;2023-02-28T06:39:37;7.00;;;3.95;;
69629;SDS011;56857;52.212;5.496;2023-02-28T06:42:02;9.13;;;4.13;;
69629;SDS011;56857;52.212;5.496;2023-02-28T06:44:28;9.80;;;4.38;;
69629;SDS011;56857;52.212;5.496;2023-02-28T06:46:53;7.32;;;3.90;;
69629;SDS011;56857;52.212;5.496;2023-02-28T06:49:19;8.95;;;5.05;;
69629;SDS011;56857;52.212;5.496;2023-02-28T06:51:44;9.82;;;4.88;;
69629;SDS011;56857;52.212;5.496;2023-02-28T06:56:37;10.20;;;5.35;;
69629;SDS011;56857;52.212;5.496;2023-02-28T06:59:03;10.30;;;5.78;;
69629;SDS011;56857;52.212;5.496;2023-02-28T07:01:29;9.32;;;4.65;;
69629;SDS011;56857;52.212;5.496;2023-02-28T07:03:54;7.32;;;4.22;;
69629;SDS011;56857;52.212;5.496;2023-02-28T07:06:20;10.40;;;4.63;;
69629;SDS011;56857;52.212;5.496;2023-02-28T07:08:46;9.80;;;4.57;;
69629;SDS011;56857;52.212;5.496;2023-02-28T07:11:11;8.18;;;4.65;;
69629;SDS011;56857;52.212;5.496;2023-02-28T07:13:38;9.43;;;4.63;;
69629;SDS011;56857;52.212;5.496;2023-02-28T07:16:04;9.43;;;5.30;;
69629;SDS011;56857;52.212;5.496;2023-02-28T07:18:32;10.68;;;5.28;;
69629;SDS011;56857;52.212;5.496;2023-02-28T07:20:57;9.10;;;4.63;;
69629;SDS011;56857;52.212;5.496;2023-02-28T07:23:25;8.80;;;5.13;;
69629;SDS011;56857;52.212;5.496;2023-02-28T07:25:51;8.93;;;5.10;;
69629;SDS011;56857;52.212;5.496;2023-02-28T07:28:16;9.60;;;5.97;;
69629;SDS011;56857;52.212;5.496;2023-02-28T07:30:41;11.43;;;5.30;;
69629;SDS011;56857;52.212;5.496;2023-02-28T07:33:07;8.27;;;4.68;;
69629;SDS011;56857;52.212;5.496;2023-02-28T07:35:33;8.30;;;5.45;;
69629;SDS011;56857;52.212;5.496;2023-02-28T07:37:58;8.75;;;5.07;;
69629;SDS011;56857;52.212;5.496;2023-02-28T07:40:24;10.68;;;4.13;;
69629;SDS011;56857;52.212;5.496;2023-02-28T07:42:50;11.48;;;4.28;;
69629;SDS011;56857;52.212;5.496;2023-02-28T07:45:15;7.78;;;4.32;;
69629;SDS011;56857;52.212;5.496;2023-02-28T07:47:41;8.10;;;4.15;;
69629;SDS011;56857;52.212;5.496;2023-02-28T07:50:08;8.15;;;4.88;;
69629;SDS011;56857;52.212;5.496;2023-02-28T07:52:36;8.93;;;4.63;;
69629;SDS011;56857;52.212;5.496;2023-02-28T07:55:02;9.52;;;5.03;;
69629;SDS011;56857;52.212;5.496;2023-02-28T07:57:28;7.72;;;5.20;;
69629;SDS011;56857;52.212;5.496;2023-02-28T08:02:19;9.85;;;4.53;;
69629;SDS011;56857;52.212;5.496;2023-02-28T08:07:10;8.18;;;5.03;;
69629;SDS011;56857;52.212;5.496;2023-02-28T08:09:38;10.07;;;4.55;;
69629;SDS011;56857;52.212;5.496;2023-02-28T08:12:06;9.40;;;4.65;;
69629;SDS011;56857;52.212;5.496;2023-02-28T08:14:32;10.27;;;4.65;;
69629;SDS011;56857;52.212;5.496;2023-02-28T08:16:58;9.32;;;5.25;;
69629;SDS011;56857;52.212;5.496;2023-02-28T08:19:23;10.43;;;5.75;;
69629;SDS011;56857;52.212;5.496;2023-02-28T08:21:48;9.93;;;5.93;;
69629;SDS011;56857;52.212;5.496;2023-02-28T08:24:14;7.57;;;4.95;;
69629;SDS011;56857;52.212;5.496;2023-02-28T08:26:39;9.73;;;5.47;;
69629;SDS011;56857;52.212;5.496;2023-02-28T08:29:04;8.35;;;5.25;;
69629;SDS011;56857;52.212;5.496;2023-02-28T08:31:30;9.13;;;4.38;;
69629;SDS011;56857;52.212;5.496;2023-02-28T08:33:55;13.40;;;6.53;;
69629;SDS011;56857;52.212;5.496;2023-02-28T08:36:20;13.00;;;6.83;;
69629;SDS011;56857;52.212;5.496;2023-02-28T08:38:46;14.38;;;7.28;;
69629;SDS011;56857;52.212;5.496;2023-02-28T08:41:12;15.63;;;8.00;;
69629;SDS011;56857;52.212;5.496;2023-02-28T08:43:40;17.42;;;8.82;;
69629;SDS011;56857;52.212;5.496;2023-02-28T08:46:06;13.00;;;8.18;;
69629;SDS011;56857;52.212;5.496;2023-02-28T08:48:33;14.30;;;8.07;;
69629;SDS011;56857;52.212;5.496;2023-02-28T08:51:02;14.45;;;7.82;;
69629;SDS011;56857;52.212;5.496;2023-02-28T08:53:39;11.27;;;6.03;;
69629;SDS011;56857;52.212;5.496;2023-02-28T08:56:06;11.30;;;6.05;;
69629;SDS011;56857;52.212;5.496;2023-02-28T08:58:34;13.18;;;6.03;;
69629;SDS011;56857;52.212;5.496;2023-02-28T09:01:06;10.63;;;5.60;;
69629;SDS011;56857;52.212;5.496;2023-02-28T09:03:33;9.77;;;5.80;;
69629;SDS011;56857;52.212;5.496;2023-02-28T09:06:00;9.63;;;4.50;;
69629;SDS011;56857;52.212;5.496;2023-02-28T09:08:26;9.52;;;4.70;;
69629;SDS011;56857;52.212;5.496;2023-02-28T09:10:53;7.43;;;4.80;;
69629;SDS011;56857;52.212;5.496;2023-02-28T09:13:19;8.95;;;4.43;;
69629;SDS011;56857;52.212;5.496;2023-02-28T09:15:45;8.15;;;4.15;;
69629;SDS011;56857;52.212;5.496;2023-02-28T09:18:11;7.75;;;4.10;;
69629;SDS011;56857;52.212;5.496;2023-02-28T09:20:38;7.38;;;4.15;;
69629;SDS011;56857;52.212;5.496;2023-02-28T09:23:04;6.93;;;3.75;;
69629;SDS011;56857;52.212;5.496;2023-02-28T09:25:29;6.80;;;3.40;;
69629;SDS011;56857;52.212;5.496;2023-02-28T09:27:54;7.10;;;3.03;;
69629;SDS011;56857;52.212;5.496;2023-02-28T09:30:20;7.18;;;3.00;;
69629;SDS011;56857;52.212;5.496;2023-02-28T09:32:47;7.75;;;3.70;;
69629;SDS011;56857;52.212;5.496;2023-02-28T09:35:16;6.60;;;2.90;;
69629;SDS011;56857;52.212;5.496;2023-02-28T09:37:41;6.15;;;3.15;;
69629;SDS011;56857;52.212;5.496;2023-02-28T09:40:07;4.03;;;2.33;;
69629;SDS011;56857;52.212;5.496;2023-02-28T09:42:36;3.45;;;1.73;;
69629;SDS011;56857;52.212;5.496;2023-02-28T09:45:02;4.68;;;2.03;;
69629;SDS011;56857;52.212;5.496;2023-02-28T09:47:38;3.08;;;1.90;;
69629;SDS011;56857;52.212;5.496;2023-02-28T09:50:19;3.53;;;2.03;;
69629;SDS011;56857;52.212;5.496;2023-02-28T09:52:51;4.28;;;1.85;;
69629;SDS011;56857;52.212;5.496;2023-02-28T09:55:37;4.28;;;2.40;;
69629;SDS011;56857;52.212;5.496;2023-02-28T09:58:11;4.88;;;2.03;;
69629;SDS011;56857;52.212;5.496;2023-02-28T10:01:12;4.40;;;2.00;;
69629;SDS011;56857;52.212;5.496;2023-02-28T10:06:21;3.47;;;1.58;;
69629;SDS011;56857;52.212;5.496;2023-02-28T10:09:04;4.35;;;1.90;;
69629;SDS011;56857;52.212;5.496;2023-02-28T10:11:36;4.38;;;1.98;;
69629;SDS011;56857;52.212;5.496;2023-02-28T10:14:23;6.03;;;2.15;;
69629;SDS011;56857;52.212;5.496;2023-02-28T10:19:58;3.88;;;2.00;;
69629;SDS011;56857;52.212;5.496;2023-02-28T10:25:00;4.15;;;2.10;;
69629;SDS011;56857;52.212;5.496;2023-02-28T10:27:31;4.70;;;2.47;;
69629;SDS011;56857;52.212;5.496;2023-02-28T10:30:00;5.22;;;2.20;;
69629;SDS011;56857;52.212;5.496;2023-02-28T10:32:34;5.28;;;2.35;;
69629;SDS011;56857;52.212;5.496;2023-02-28T10:37:46;4.75;;;2.08;;
69629;SDS011;56857;52.212;5.496;2023-02-28T10:45:39;4.18;;;2.45;;
69629;SDS011;56857;52.212;5.496;2023-02-28T11:03:51;6.63;;;3.03;;
69629;SDS011;56857;52.212;5.496;2023-02-28T11:06:21;7.70;;;3.80;;
69629;SDS011;56857;52.212;5.496;2023-02-28T11:08:54;7.45;;;2.30;;
69629;SDS011;56857;52.212;5.496;2023-02-28T11:11:21;5.05;;;2.20;;
69629;SDS011;56857;52.212;5.496;2023-02-28T11:13:50;4.22;;;2.20;;
69629;SDS011;56857;52.212;5.496;2023-02-28T11:16:52;5.03;;;2.03;;
69629;SDS011;56857;52.212;5.496;2023-02-28T11:19:16;3.88;;;1.98;;
69629;SDS011;56857;52.212;5.496;2023-02-28T11:21:48;4.63;;;2.33;;
69629;SDS011;56857;52.212;5.496;2023-02-28T11:24:28;4.00;;;1.85;;
69629;SDS011;56857;52.212;5.496;2023-02-28T11:26:57;5.78;;;2.50;;
69629;SDS011;56857;52.212;5.496;2023-02-28T11:29:25;6.50;;;2.50;;
69629;SDS011;56857;52.212;5.496;2023-02-28T11:34:47;4.63;;;2.70;;
69629;SDS011;56857;52.212;5.496;2023-02-28T11:37:27;4.70;;;2.20;;
69629;SDS011;56857;52.212;5.496;2023-02-28T11:39:54;4.28;;;1.80;;
69629;SDS011;56857;52.212;5.496;2023-02-28T11:42:27;4.05;;;1.92;;
69629;SDS011;56857;52.212;5.496;2023-02-28T11:45:13;4.40;;;2.00;;
69629;SDS011;56857;52.212;5.496;2023-02-28T11:50:40;3.60;;;1.80;;
69629;SDS011;56857;52.212;5.496;2023-02-28T11:59:04;4.43;;;1.92;;
69629;SDS011;56857;52.212;5.496;2023-02-28T12:21:16;4.00;;;1.90;;
69629;SDS011;56857;52.212;5.496;2023-02-28T12:24:26;3.83;;;1.98;;
69629;SDS011;56857;52.212;5.496;2023-02-28T12:26:50;4.25;;;2.00;;
69629;SDS011;56857;52.212;5.496;2023-02-28T12:32:03;6.97;;;2.22;;
69629;SDS011;56857;52.212;5.496;2023-02-28T12:34:32;4.40;;;2.22;;
69629;SDS011;56857;52.212;5.496;2023-02-28T12:37:03;4.85;;;2.20;;
69629;SDS011;56857;52.212;5.496;2023-02-28T12:39:35;4.90;;;2.20;;
69629;SDS011;56857;52.212;5.496;2023-02-28T12:42:13;4.50;;;2.22;;
69629;SDS011;56857;52.212;5.496;2023-02-28T12:44:52;5.93;;;2.83;;
69629;SDS011;56857;52.212;5.496;2023-02-28T12:47:22;4.63;;;2.22;;
69629;SDS011;56857;52.212;5.496;2023-02-28T12:52:31;4.13;;;2.13;;
69629;SDS011;56857;52.212;5.496;2023-02-28T12:55:50;4.00;;;2.03;;
69629;SDS011;56857;52.212;5.496;2023-02-28T13:01:15;5.07;;;2.67;;
69629;SDS011;56857;52.212;5.496;2023-02-28T13:09:41;3.15;;;1.63;;
69629;SDS011;56857;52.212;5.496;2023-02-28T13:12:16;4.78;;;2.13;;
69629;SDS011;56857;52.212;5.496;2023-02-28T13:14:42;4.53;;;2.15;;
69629;SDS011;56857;52.212;5.496;2023-02-28T13:19:34;5.63;;;2.23;;
69629;SDS011;56857;52.212;5.496;2023-02-28T13:22:01;4.30;;;2.10;;
69629;SDS011;56857;52.212;5.496;2023-02-28T13:29:37;5.43;;;2.20;;
69629;SDS011;56857;52.212;5.496;2023-02-28T13:34:34;4.73;;;2.27;;
69629;SDS011;56857;52.212;5.496;2023-02-28T13:39:50;4.40;;;2.33;;
69629;SDS011;56857;52.212;5.496;2023-02-28T13:47:29;5.05;;;2.25;;
69629;SDS011;56857;52.212;5.496;2023-02-28T14:07:49;4.25;;;1.92;;
69629;SDS011;56857;52.212;5.496;2023-02-28T14:10:24;4.88;;;2.40;;
69629;SDS011;56857;52.212;5.496;2023-02-28T14:12:58;4.75;;;2.88;;
69629;SDS011;56857;52.212;5.496;2023-02-28T14:15:34;7.10;;;2.85;;
69629;SDS011;56857;52.212;5.496;2023-02-28T14:20:45;5.03;;;2.92;;
69629;SDS011;56857;52.212;5.496;2023-02-28T14:28:43;4.55;;;2.50;;
69629;SDS011;56857;52.212;5.496;2023-02-28T14:31:54;5.55;;;2.63;;
69629;SDS011;56857;52.212;5.496;2023-02-28T14:37:28;4.50;;;2.25;;
69629;SDS011;56857;52.212;5.496;2023-02-28T14:39:57;7.30;;;2.35;;
69629;SDS011;56857;52.212;5.496;2023-02-28T14:42:27;5.47;;;2.75;;
69629;SDS011;56857;52.212;5.496;2023-02-28T14:44:58;6.30;;;2.50;;
69629;SDS011;56857;52.212;5.496;2023-02-28T14:47:25;4.20;;;2.30;;
69629;SDS011;56857;52.212;5.496;2023-02-28T14:49:53;6.18;;;2.45;;
69629;SDS011;56857;52.212;5.496;2023-02-28T14:52:23;4.82;;;2.17;;
69629;SDS011;56857;52.212;5.496;2023-02-28T14:54:55;5.57;;;2.50;;
69629;SDS011;56857;52.212;5.496;2023-02-28T14:57:27;5.43;;;2.50;;
69629;SDS011;56857;52.212;5.496;2023-02-28T14:59:58;3.28;;;1.85;;
69629;SDS011;56857;52.212;5.496;2023-02-28T15:02:26;5.13;;;2.50;;
69629;SDS011;56857;52.212;5.496;2023-02-28T15:04:55;3.20;;;1.83;;
69629;SDS011;56857;52.212;5.496;2023-02-28T15:07:23;4.78;;;2.40;;
69629;SDS011;56857;52.212;5.496;2023-02-28T15:09:48;6.25;;;2.50;;
69629;SDS011;56857;52.212;5.496;2023-02-28T15:12:14;5.17;;;2.37;;
69629;SDS011;56857;52.212;5.496;2023-02-28T15:14:42;5.28;;;2.33;;
69629;SDS011;56857;52.212;5.496;2023-02-28T15:17:11;4.65;;;2.42;;
69629;SDS011;56857;52.212;5.496;2023-02-28T15:19:47;5.50;;;2.50;;
69629;SDS011;56857;52.212;5.496;2023-02-28T15:22:16;5.25;;;2.92;;
69629;SDS011;56857;52.212;5.496;2023-02-28T15:27:14;5.07;;;2.42;;
69629;SDS011;56857;52.212;5.496;2023-02-28T15:29:47;6.20;;;2.70;;
69629;SDS011;56857;52.212;5.496;2023-02-28T15:32:31;5.43;;;3.10;;
69629;SDS011;56857;52.212;5.496;2023-02-28T15:35:16;5.57;;;2.40;;
69629;SDS011;56857;52.212;5.496;2023-02-28T15:38:03;4.60;;;2.40;;
69629;SDS011;56857;52.212;5.496;2023-02-28T15:40:37;5.78;;;2.88;;
69629;SDS011;56857;52.212;5.496;2023-02-28T15:43:16;5.53;;;2.53;;
69629;SDS011;56857;52.212;5.496;2023-02-28T15:45:52;6.43;;;2.70;;
69629;SDS011;56857;52.212;5.496;2023-02-28T15:48:29;5.80;;;2.92;;
69629;SDS011;56857;52.212;5.496;2023-02-28T15:53:30;6.53;;;3.45;;
69629;SDS011;56857;52.212;5.496;2023-02-28T15:56:00;6.47;;;3.47;;
69629;SDS011;56857;52.212;5.496;2023-02-28T15:58:28;7.72;;;3.53;;
69629;SDS011;56857;52.212;5.496;2023-02-28T16:01:01;5.85;;;3.00;;
69629;SDS011;56857;52.212;5.496;2023-02-28T16:06:35;7.47;;;3.30;;
69629;SDS011;56857;52.212;5.496;2023-02-28T16:09:02;6.25;;;2.67;;
69629;SDS011;56857;52.212;5.496;2023-02-28T16:11:29;6.43;;;2.72;;
69629;SDS011;56857;52.212;5.496;2023-02-28T16:13:55;7.18;;;2.80;;
69629;SDS011;56857;52.212;5.496;2023-02-28T16:16:22;5.85;;;2.60;;
69629;SDS011;56857;52.212;5.496;2023-02-28T16:18:50;6.47;;;2.67;;
69629;SDS011;56857;52.212;5.496;2023-02-28T16:21:16;7.13;;;3.28;;
69629;SDS011;56857;52.212;5.496;2023-02-28T16:23:41;8.65;;;3.28;;
69629;SDS011;56857;52.212;5.496;2023-02-28T16:26:07;6.65;;;2.88;;
69629;SDS011;56857;52.212;5.496;2023-02-28T16:28:41;5.90;;;2.80;;
69629;SDS011;56857;52.212;5.496;2023-02-28T16:31:06;6.00;;;2.78;;
69629;SDS011;56857;52.212;5.496;2023-02-28T16:33:34;5.28;;;2.92;;
69629;SDS011;56857;52.212;5.496;2023-02-28T16:35:59;6.90;;;3.00;;
69629;SDS011;56857;52.212;5.496;2023-02-28T16:38:26;5.50;;;2.88;;
69629;SDS011;56857;52.212;5.496;2023-02-28T16:40:53;6.18;;;3.13;;
69629;SDS011;56857;52.212;5.496;2023-02-28T16:43:23;6.43;;;2.80;;
69629;SDS011;56857;52.212;5.496;2023-02-28T16:45:56;7.03;;;2.67;;
69629;SDS011;56857;52.212;5.496;2023-02-28T16:48:22;6.00;;;3.13;;
69629;SDS011;56857;52.212;5.496;2023-02-28T16:50:47;7.10;;;3.37;;
69629;SDS011;56857;52.212;5.496;2023-02-28T16:53:12;6.97;;;3.10;;
69629;SDS011;56857;52.212;5.496;2023-02-28T16:55:38;5.38;;;2.45;;
69629;SDS011;56857;52.212;5.496;2023-02-28T16:58:03;6.00;;;2.95;;
69629;SDS011;56857;52.212;5.496;2023-02-28T17:00:29;5.27;;;3.07;;
69629;SDS011;56857;52.212;5.496;2023-02-28T17:02:55;5.40;;;3.05;;
69629;SDS011;56857;52.212;5.496;2023-02-28T17:05:29;5.72;;;3.15;;
69629;SDS011;56857;52.212;5.496;2023-02-28T17:08:01;6.20;;;2.90;;
69629;SDS011;56857;52.212;5.496;2023-02-28T17:10:27;7.13;;;3.60;;
69629;SDS011;56857;52.212;5.496;2023-02-28T17:12:53;5.55;;;2.90;;
69629;SDS011;56857;52.212;5.496;2023-02-28T17:15:19;7.22;;;3.03;;
69629;SDS011;56857;52.212;5.496;2023-02-28T17:17:49;5.85;;;3.05;;
69629;SDS011;56857;52.212;5.496;2023-02-28T17:20:28;5.63;;;3.30;;
69629;SDS011;56857;52.212;5.496;2023-02-28T17:22:56;8.95;;;4.80;;
69629;SDS011;56857;52.212;5.496;2023-02-28T17:25:22;11.20;;;5.43;;
69629;SDS011;56857;52.212;5.496;2023-02-28T17:27:49;9.32;;;6.07;;
69629;SDS011;56857;52.212;5.496;2023-02-28T17:30:20;9.90;;;5.75;;
69629;SDS011;56857;52.212;5.496;2023-02-28T17:32:47;7.40;;;3.95;;
69629;SDS011;56857;52.212;5.496;2023-02-28T17:35:13;7.55;;;4.80;;
69629;SDS011;56857;52.212;5.496;2023-02-28T17:37:39;11.63;;;4.53;;
69629;SDS011;56857;52.212;5.496;2023-02-28T17:40:12;13.50;;;9.90;;
69629;SDS011;56857;52.212;5.496;2023-02-28T17:42:39;12.32;;;7.15;;
69629;SDS011;56857;52.212;5.496;2023-02-28T17:45:05;7.83;;;4.43;;
69629;SDS011;56857;52.212;5.496;2023-02-28T17:47:30;9.77;;;4.70;;
69629;SDS011;56857;52.212;5.496;2023-02-28T17:49:56;8.60;;;5.18;;
69629;SDS011;56857;52.212;5.496;2023-02-28T17:52:21;8.50;;;4.90;;
69629;SDS011;56857;52.212;5.496;2023-02-28T17:54:46;9.40;;;5.00;;
69629;SDS011;56857;52.212;5.496;2023-02-28T17:57:15;8.55;;;4.72;;
69629;SDS011;56857;52.212;5.496;2023-02-28T17:59:40;10.02;;;4.72;;
69629;SDS011;56857;52.212;5.496;2023-02-28T18:02:06;8.30;;;4.85;;
69629;SDS011;56857;52.212;5.496;2023-02-28T18:04:31;9.65;;;5.00;;
69629;SDS011;56857;52.212;5.496;2023-02-28T18:06:56;10.85;;;4.88;;
69629;SDS011;56857;52.212;5.496;2023-02-28T18:09:22;7.97;;;5.00;;
69629;SDS011;56857;52.212;5.496;2023-02-28T18:11:48;8.93;;;5.00;;
69629;SDS011;56857;52.212;5.496;2023-02-28T18:14:18;9.05;;;5.05;;
69629;SDS011;56857;52.212;5.496;2023-02-28T18:16:44;9.07;;;4.68;;
69629;SDS011;56857;52.212;5.496;2023-02-28T18:19:10;8.98;;;4.28;;
69629;SDS011;56857;52.212;5.496;2023-02-28T18:21:37;9.02;;;4.55;;
69629;SDS011;56857;52.212;5.496;2023-02-28T18:24:03;10.15;;;4.75;;
69629;SDS011;56857;52.212;5.496;2023-02-28T18:26:28;9.60;;;5.22;;